Time;durP1;ratioP1;P1;durP2;ratioP2;P2;SDS_P1;SDS_P2;PMS_P1;PMS_P2;Temp;Humidity;BMP_temperature;BMP_pressure;BME280_temperature;BME280_humidity;BME280_pressure;Samples;Min_cycle;Max_cycle;Signal;HPM_P1;HPM_P2
2024/03/30 00:00:54;;;;;;;7.83;7.20;;;12.50;1.00;;;;;;5108589;27;20484;-75
2024/03/30 00:03:20;;;;;;;8.17;7.37;;;12.50;1.00;;;;;;5104256;27;20505;-74
2024/03/30 00:05:47;;;;;;;8.03;7.23;;;12.50;1.00;;;;;;5105919;27;20484;-75
2024/03/30 00:08:14;;;;;;;7.83;7.13;;;12.60;1.00;;;;;;5106468;27;20902;-74
2024/03/30 00:10:42;;;;;;;8.73;7.83;;;12.60;1.00;;;;;;5103916;27;20520;-74
2024/03/30 00:13:09;;;;;;;8.90;7.70;;;12.60;1.00;;;;;;5103508;27;20453;-75
2024/03/30 00:15:37;;;;;;;8.33;7.63;;;12.60;1.00;;;;;;5106984;27;20523;-74
2024/03/30 00:18:04;;;;;;;8.23;7.53;;;12.60;1.00;;;;;;5102410;27;20445;-75
2024/03/30 00:20:31;;;;;;;8.43;7.63;;;12.50;1.00;;;;;;5080831;27;20473;-73
2024/03/30 00:22:59;;;;;;;8.77;7.90;;;12.40;1.00;;;;;;5080667;27;20455;-75
2024/03/30 00:25:25;;;;;;;7.87;7.07;;;12.30;1.00;;;;;;5085655;27;20428;-75
2024/03/30 00:27:51;;;;;;;8.10;7.40;;;12.20;1.00;;;;;;5084549;28;21308;-75
2024/03/30 00:30:19;;;;;;;8.27;6.90;;;12.20;1.00;;;;;;5093893;27;20469;-73
2024/03/30 00:32:47;;;;;;;8.73;7.93;;;12.10;1.00;;;;;;5080465;27;21260;-75
2024/03/30 00:35:16;;;;;;;7.53;6.93;;;12.20;1.00;;;;;;5082124;28;20465;-75
2024/03/30 00:37:42;;;;;;;7.97;7.10;;;12.20;1.00;;;;;;5080714;27;21053;-75
2024/03/30 00:40:10;;;;;;;9.00;8.17;;;12.20;1.00;;;;;;5104042;27;20475;-76
2024/03/30 00:42:36;;;;;;;7.73;7.07;;;12.10;1.00;;;;;;5102497;27;20583;-76
2024/03/30 00:45:04;;;;;;;31.43;28.40;;;12.00;1.00;;;;;;5104833;27;20467;-75
2024/03/30 00:47:30;;;;;;;10.27;9.37;;;12.00;1.00;;;;;;5102197;27;20519;-75
2024/03/30 00:49:57;;;;;;;9.17;8.27;;;12.10;1.00;;;;;;5099546;27;20514;-76
2024/03/30 00:52:24;;;;;;;8.10;7.40;;;12.10;1.00;;;;;;5103355;27;20547;-75
2024/03/30 00:54:51;;;;;;;8.00;7.20;;;12.00;1.00;;;;;;5103160;27;20463;-75
2024/03/30 00:57:17;;;;;;;7.10;6.47;;;11.90;1.00;;;;;;5099798;27;21388;-75
2024/03/30 00:59:44;;;;;;;7.40;6.70;;;11.80;1.00;;;;;;5102629;27;20578;-75
2024/03/30 01:02:11;;;;;;;7.27;6.57;;;11.80;1.00;;;;;;5106312;27;20952;-75
2024/03/30 01:04:38;;;;;;;7.30;6.60;;;11.80;1.00;;;;;;5102333;27;20507;-74
2024/03/30 01:07:05;;;;;;;8.63;7.83;;;11.80;1.00;;;;;;5098970;27;20944;-75
2024/03/30 01:09:33;;;;;;;6.90;6.20;;;11.70;1.00;;;;;;5103549;27;20475;-75
2024/03/30 01:11:59;;;;;;;7.80;7.00;;;11.80;1.00;;;;;;5084384;27;20868;-75
2024/03/30 01:14:27;;;;;;;7.30;6.70;;;11.80;1.00;;;;;;5081655;28;20463;-75
2024/03/30 01:16:54;;;;;;;7.37;6.67;;;11.80;1.00;;;;;;5080207;28;20458;-75
2024/03/30 01:19:29;;;;;;;8.07;7.30;;;11.70;1.00;;;;;;5102122;27;20494;-75
2024/03/30 01:21:56;;;;;;;7.70;6.90;;;11.70;1.00;;;;;;5080598;28;20445;-75
2024/03/30 01:24:23;;;;;;;7.63;6.93;;;11.60;1.00;;;;;;5086892;27;20464;-75
2024/03/30 01:26:57;;;;;;;7.57;6.87;;;11.60;1.00;;;;;;5103790;27;20447;-75
2024/03/30 01:29:25;;;;;;;7.63;6.93;;;11.40;1.00;;;;;;5102795;27;20498;-75
2024/03/30 01:31:53;;;;;;;7.73;7.03;;;11.40;1.00;;;;;;5105134;27;21913;-74
2024/03/30 01:34:21;;;;;;;7.90;7.10;;;11.40;1.00;;;;;;5103482;27;21635;-74
2024/03/30 01:36:47;;;;;;;7.80;7.03;;;11.50;1.00;;;;;;5100696;27;20493;-74
2024/03/30 01:39:14;;;;;;;7.60;6.90;;;11.40;1.00;;;;;;5100855;27;20566;-74
2024/03/30 01:41:40;;;;;;;7.23;6.53;;;11.40;1.00;;;;;;5101094;27;20490;-74
2024/03/30 01:44:09;;;;;;;7.93;7.00;;;11.40;1.00;;;;;;5104898;27;20672;-75
2024/03/30 01:46:36;;;;;;;7.53;6.80;;;11.40;1.00;;;;;;5100535;27;20523;-75
2024/03/30 01:49:04;;;;;;;7.70;6.93;;;11.40;1.00;;;;;;5105317;27;20903;-75
2024/03/30 01:51:30;;;;;;;8.20;7.40;;;11.40;1.00;;;;;;5105750;27;20962;-75
2024/03/30 01:53:59;;;;;;;7.70;7.03;;;11.40;1.00;;;;;;5103750;27;22016;-75
2024/03/30 01:56:29;;;;;;;7.90;7.13;;;11.40;1.00;;;;;;5103204;27;20503;-74
2024/03/30 01:58:57;;;;;;;8.20;7.50;;;11.30;1.00;;;;;;5098100;27;20462;-75
2024/03/30 02:01:24;;;;;;;9.20;8.30;;;11.30;1.00;;;;;;5082909;28;20501;-75
2024/03/30 02:03:54;;;;;;;8.70;7.90;;;11.20;1.00;;;;;;5084888;27;20469;-75
2024/03/30 02:06:21;;;;;;;8.60;7.80;;;11.20;1.00;;;;;;5082930;27;20505;-75
2024/03/30 02:08:51;;;;;;;9.90;8.90;;;11.20;1.00;;;;;;5077647;28;20479;-75
2024/03/30 02:11:19;;;;;;;9.30;8.30;;;11.10;1.00;;;;;;5087696;27;20441;-75
2024/03/30 02:13:46;;;;;;;8.37;7.57;;;11.10;1.00;;;;;;5088830;28;20467;-75
2024/03/30 02:16:12;;;;;;;9.00;8.20;;;11.10;1.00;;;;;;5080542;28;20451;-75
2024/03/30 02:18:40;;;;;;;8.60;7.77;;;11.00;1.00;;;;;;5080606;28;20455;-75
2024/03/30 02:21:06;;;;;;;8.80;8.00;;;11.00;1.00;;;;;;5094453;27;21344;-75
2024/03/30 02:23:35;;;;;;;8.17;7.40;;;11.00;1.00;;;;;;5102464;27;20478;-75
2024/03/30 02:26:01;;;;;;;7.70;7.00;;;10.90;1.00;;;;;;5103521;27;20650;-75
2024/03/30 02:28:29;;;;;;;7.73;7.03;;;10.90;1.00;;;;;;5103948;27;20939;-76
2024/03/30 02:30:55;;;;;;;7.00;6.30;;;10.90;1.00;;;;;;5090499;27;20564;-75
2024/03/30 02:33:22;;;;;;;8.27;7.53;;;10.90;1.00;;;;;;5090718;27;20514;-75
2024/03/30 02:35:49;;;;;;;8.30;7.50;;;10.90;1.00;;;;;;5082404;28;20526;-75
2024/03/30 02:38:16;;;;;;;7.87;7.17;;;10.90;1.00;;;;;;5081510;27;20525;-75
2024/03/30 02:40:53;;;;;;;8.43;7.70;;;10.80;1.00;;;;;;5082794;27;20828;-75
2024/03/30 02:43:20;;;;;;;8.10;7.40;;;10.80;1.00;;;;;;5083937;28;20450;-75
2024/03/30 02:45:46;;;;;;;7.50;6.90;;;10.80;1.00;;;;;;5085865;27;20616;-75
2024/03/30 02:48:13;;;;;;;8.00;7.20;;;10.70;1.00;;;;;;5086090;27;20817;-75
2024/03/30 02:50:39;;;;;;;7.80;7.10;;;10.70;1.00;;;;;;5099400;27;20499;-75
2024/03/30 02:53:06;;;;;;;8.33;6.97;;;10.70;1.00;;;;;;5100349;27;20466;-74
2024/03/30 02:55:31;;;;;;;9.37;8.47;;;10.70;1.00;;;;;;5098650;27;20986;-75
2024/03/30 02:58:00;;;;;;;7.73;6.93;;;10.60;1.00;;;;;;5099071;27;20525;-75
2024/03/30 03:00:26;;;;;;;10.20;7.50;;;10.50;1.00;;;;;;5106467;27;20540;-76
2024/03/30 03:02:53;;;;;;;7.87;7.10;;;10.50;1.00;;;;;;5106686;27;20457;-74
2024/03/30 03:05:19;;;;;;;6.97;6.37;;;10.50;1.00;;;;;;5102972;27;20454;-76
2024/03/30 03:07:46;;;;;;;7.20;6.50;;;10.50;1.00;;;;;;5103619;27;20470;-75
2024/03/30 03:10:13;;;;;;;6.97;5.90;;;10.50;1.00;;;;;;5102618;27;20514;-75
2024/03/30 03:12:41;;;;;;;6.70;5.47;;;10.50;1.00;;;;;;5106200;27;20478;-74
2024/03/30 03:15:08;;;;;;;6.87;6.17;;;10.40;1.00;;;;;;5107134;27;20490;-75
2024/03/30 03:17:37;;;;;;;7.10;6.50;;;10.40;1.00;;;;;;5103846;27;20492;-75
2024/03/30 03:20:05;;;;;;;5.67;5.20;;;10.40;1.00;;;;;;5105090;27;20455;-74
2024/03/30 03:22:33;;;;;;;5.43;5.03;;;10.40;1.00;;;;;;5107997;27;20453;-76
2024/03/30 03:24:59;;;;;;;5.80;5.40;;;10.40;1.00;;;;;;5105437;27;20544;-74
2024/03/30 03:27:25;;;;;;;8.30;5.50;;;10.50;1.00;;;;;;5101324;27;22423;-75
2024/03/30 03:29:51;;;;;;;6.50;5.90;;;10.50;1.00;;;;;;5097774;27;20530;-76
2024/03/30 03:32:20;;;;;;;6.10;5.60;;;10.40;1.00;;;;;;5103566;27;20586;-74
2024/03/30 03:34:46;;;;;;;8.17;6.60;;;10.40;1.00;;;;;;5103992;27;20560;-75
2024/03/30 03:37:13;;;;;;;5.13;4.67;;;10.40;1.00;;;;;;5106271;27;20849;-74
2024/03/30 03:39:38;;;;;;;5.20;4.80;;;10.40;1.00;;;;;;5102303;27;20570;-74
2024/03/30 03:42:06;;;;;;;6.30;5.70;;;10.40;1.00;;;;;;5101064;27;21024;-74
2024/03/30 03:44:31;;;;;;;7.57;5.10;;;10.30;1.00;;;;;;5106447;27;20557;-74
2024/03/30 03:46:58;;;;;;;5.37;4.87;;;10.30;1.00;;;;;;5102034;27;20481;-75
2024/03/30 03:49:26;;;;;;;5.17;4.67;;;10.30;1.00;;;;;;5104778;27;21206;-74
2024/03/30 03:51:53;;;;;;;5.63;5.17;;;10.40;1.00;;;;;;5095517;27;20598;-74
2024/03/30 03:54:19;;;;;;;5.77;5.27;;;10.40;1.00;;;;;;5099561;27;21722;-74
2024/03/30 03:56:46;;;;;;;5.43;4.93;;;10.30;1.00;;;;;;5091869;27;20562;-73
2024/03/30 03:59:12;;;;;;;5.57;5.07;;;10.30;1.00;;;;;;5079078;28;20523;-74
2024/03/30 04:01:40;;;;;;;7.50;5.30;;;10.30;1.00;;;;;;5088338;27;20556;-74
2024/03/30 04:04:06;;;;;;;5.70;5.20;;;10.30;1.00;;;;;;5092187;27;20469;-74
2024/03/30 04:06:34;;;;;;;5.33;4.80;;;10.30;1.00;;;;;;5081002;27;20529;-74
2024/03/30 04:09:02;;;;;;;6.00;5.40;;;10.30;1.00;;;;;;5079416;28;20460;-74
2024/03/30 04:11:29;;;;;;;10.50;4.70;;;10.30;1.00;;;;;;5080600;28;21500;-74
2024/03/30 04:13:56;;;;;;;5.73;4.60;;;10.20;1.00;;;;;;5100410;27;20458;-75
2024/03/30 04:16:23;;;;;;;5.27;4.73;;;10.10;1.00;;;;;;5085456;28;20487;-74
2024/03/30 04:18:50;;;;;;;6.13;4.13;;;10.10;1.00;;;;;;5082740;28;20490;-74
2024/03/30 04:21:17;;;;;;;5.10;4.60;;;10.10;1.00;;;;;;5089786;27;20485;-73
2024/03/30 04:23:45;;;;;;;8.23;4.90;;;10.10;1.00;;;;;;5100425;27;20560;-75
2024/03/30 04:26:14;;;;;;;5.13;4.63;;;10.20;1.00;;;;;;5099090;27;20562;-74
2024/03/30 04:28:40;;;;;;;6.07;4.30;;;10.20;1.00;;;;;;5082612;27;20557;-74
2024/03/30 04:31:08;;;;;;;4.93;4.43;;;10.20;1.00;;;;;;5084184;28;20479;-75
2024/03/30 04:33:34;;;;;;;5.30;4.90;;;10.20;1.00;;;;;;5082491;28;20541;-73
2024/03/30 04:36:03;;;;;;;5.60;4.43;;;10.20;1.00;;;;;;5094944;27;21081;-74
2024/03/30 04:38:30;;;;;;;5.30;4.80;;;10.20;1.00;;;;;;5084604;28;20553;-74
2024/03/30 04:41:01;;;;;;;4.23;3.83;;;10.20;1.00;;;;;;5083234;28;20546;-74
2024/03/30 04:43:28;;;;;;;6.67;4.43;;;10.30;1.00;;;;;;5092810;27;20847;-75
2024/03/30 04:45:54;;;;;;;4.63;4.20;;;10.20;1.00;;;;;;5080993;28;20613;-74
2024/03/30 04:48:23;;;;;;;6.20;5.13;;;10.20;1.00;;;;;;5082292;28;20600;-73
2024/03/30 04:50:49;;;;;;;11.13;5.37;;;10.20;1.00;;;;;;5095217;27;20465;-74
2024/03/30 04:53:17;;;;;;;6.93;4.80;;;10.20;1.00;;;;;;5102484;27;20485;-73
2024/03/30 04:55:54;;;;;;;4.63;4.20;;;10.30;1.00;;;;;;5103440;27;20488;-74
2024/03/30 04:58:23;;;;;;;4.67;4.27;;;10.30;1.00;;;;;;5102856;27;21240;-75
2024/03/30 05:00:50;;;;;;;5.70;4.90;;;10.30;1.00;;;;;;5098002;27;20462;-75
2024/03/30 05:03:18;;;;;;;6.53;5.20;;;10.40;1.00;;;;;;5101942;27;20492;-75
2024/03/30 05:05:45;;;;;;;6.37;4.80;;;10.30;1.00;;;;;;5096409;27;20529;-73
2024/03/30 05:08:13;;;;;;;5.37;4.90;;;10.30;1.00;;;;;;5101907;27;20452;-74
2024/03/30 05:10:40;;;;;;;10.90;6.70;;;10.40;1.00;;;;;;5102690;27;20454;-73
2024/03/30 05:13:07;;;;;;;6.63;5.70;;;10.40;1.00;;;;;;5101326;27;22246;-74
2024/03/30 05:15:35;;;;;;;6.53;5.03;;;10.20;1.00;;;;;;5100147;27;20561;-74
2024/03/30 05:18:03;;;;;;;5.80;5.30;;;10.20;1.00;;;;;;5100071;27;20462;-73
2024/03/30 05:20:49;;;;;;;6.13;5.53;;;10.30;1.00;;;;;;5091227;27;20542;-73
2024/03/30 05:23:19;;;;;;;8.40;4.87;;;10.40;1.00;;;;;;5080149;27;20493;-75
2024/03/30 05:25:46;;;;;;;5.23;4.73;;;10.50;1.00;;;;;;5089871;27;20567;-74
2024/03/30 05:28:14;;;;;;;7.13;4.90;;;10.60;1.00;;;;;;5081401;28;20474;-75
2024/03/30 05:30:41;;;;;;;6.07;4.57;;;10.50;1.00;;;;;;5081186;28;20565;-74
2024/03/30 05:33:09;;;;;;;6.10;4.97;;;10.60;1.00;;;;;;5081033;28;21232;-74
2024/03/30 05:35:35;;;;;;;8.40;5.30;;;10.70;1.00;;;;;;5089655;27;20536;-73
2024/03/30 05:38:03;;;;;;;5.83;5.10;;;10.90;1.00;;;;;;5083523;28;20948;-73
2024/03/30 05:40:31;;;;;;;5.37;4.97;;;11.00;1.00;;;;;;5081761;28;20487;-74
2024/03/30 05:42:59;;;;;;;5.67;5.17;;;11.10;1.00;;;;;;5086260;27;20442;-73
2024/03/30 05:45:25;;;;;;;12.40;6.60;;;11.30;1.00;;;;;;5094912;27;20511;-74
2024/03/30 05:47:54;;;;;;;7.23;5.13;;;11.40;1.00;;;;;;5075739;28;20464;-73
2024/03/30 05:50:21;;;;;;;8.97;5.67;;;11.30;1.00;;;;;;5079218;28;20479;-75
2024/03/30 05:52:48;;;;;;;7.10;5.00;;;11.40;1.00;;;;;;5075723;28;20815;-75
2024/03/30 05:55:14;;;;;;;6.10;5.57;;;11.40;1.00;;;;;;5076732;28;20978;-73
2024/03/30 05:57:41;;;;;;;7.80;5.57;;;11.40;1.00;;;;;;5080170;28;20451;-73
2024/03/30 06:00:09;;;;;;;5.13;4.63;;;11.20;1.00;;;;;;5082402;28;20542;-74
2024/03/30 06:02:36;;;;;;;5.37;4.50;;;11.20;1.00;;;;;;5077908;27;20464;-74
2024/03/30 06:05:05;;;;;;;5.33;4.83;;;11.20;1.00;;;;;;5080307;28;20554;-73
2024/03/30 06:07:32;;;;;;;6.13;5.43;;;11.40;1.00;;;;;;5079679;28;20526;-73
2024/03/30 06:09:58;;;;;;;9.40;5.00;;;11.30;1.00;;;;;;5077158;27;20535;-73
2024/03/30 06:12:25;;;;;;;8.00;5.30;;;11.40;1.00;;;;;;5080805;27;20978;-76
2024/03/30 06:14:51;;;;;;;5.77;4.57;;;11.50;1.00;;;;;;5075443;28;20529;-75
2024/03/30 06:17:18;;;;;;;4.83;4.43;;;11.60;1.00;;;;;;5082804;28;20448;-77
2024/03/30 06:19:44;;;;;;;5.10;4.60;;;11.60;1.00;;;;;;5079361;28;20461;-76
2024/03/30 06:22:13;;;;;;;6.40;5.23;;;11.60;1.00;;;;;;5080018;28;20513;-75
2024/03/30 06:24:39;;;;;;;5.83;4.70;;;11.60;1.00;;;;;;5080379;28;20951;-76
2024/03/30 06:27:07;;;;;;;9.10;4.57;;;11.70;1.00;;;;;;5082059;28;20919;-76
2024/03/30 06:29:33;;;;;;;6.70;4.93;;;11.60;1.00;;;;;;5086407;28;20506;-77
2024/03/30 06:32:00;;;;;;;5.40;4.70;;;11.70;1.00;;;;;;5082205;28;20449;-76
2024/03/30 06:34:26;;;;;;;6.53;5.20;;;11.70;1.00;;;;;;5088416;27;20522;-75
2024/03/30 06:36:53;;;;;;;7.03;5.07;;;11.80;1.00;;;;;;5090217;27;20843;-74
2024/03/30 06:39:20;;;;;;;6.27;4.70;;;11.90;1.00;;;;;;5101702;27;20524;-74
2024/03/30 06:44:31;;;;;;;5.57;5.00;;;11.90;1.00;;;;;;5104420;27;20519;-72
2024/03/30 06:46:59;;;;;;;5.73;4.73;;;11.80;1.00;;;;;;5105041;27;20449;-74
2024/03/30 06:49:25;;;;;;;6.93;5.07;;;11.90;1.00;;;;;;5105253;27;21487;-71
2024/03/30 06:51:51;;;;;;;5.80;4.77;;;12.10;1.00;;;;;;5106364;27;20890;-71
2024/03/30 06:54:20;;;;;;;9.90;6.00;;;12.20;1.00;;;;;;5104792;27;20493;-72
2024/03/30 06:56:47;;;;;;;8.40;5.10;;;12.20;1.00;;;;;;5103953;27;20472;-71
2024/03/30 06:59:14;;;;;;;6.50;5.30;;;12.30;1.00;;;;;;5106062;27;20458;-71
2024/03/30 07:01:40;;;;;;;7.47;5.17;;;12.40;1.00;;;;;;5105820;27;20551;-72
2024/03/30 07:04:06;;;;;;;5.63;5.10;;;12.50;1.00;;;;;;5107664;27;20485;-73
2024/03/30 07:06:32;;;;;;;8.97;5.27;;;12.70;1.00;;;;;;5099326;27;20497;-72
2024/03/30 07:08:59;;;;;;;9.40;5.30;;;12.70;1.00;;;;;;5085773;27;20459;-72
2024/03/30 07:11:25;;;;;;;9.63;5.20;;;12.80;1.00;;;;;;5089179;28;20551;-71
2024/03/30 07:13:54;;;;;;;8.63;6.00;;;12.90;1.00;;;;;;5088307;27;20447;-73
2024/03/30 07:16:20;;;;;;;8.47;5.80;;;13.00;1.00;;;;;;5088215;27;20490;-72
2024/03/30 07:18:49;;;;;;;6.60;5.87;;;13.00;1.00;;;;;;5087420;27;21025;-74
2024/03/30 07:21:16;;;;;;;5.73;5.13;;;13.00;1.00;;;;;;5081223;27;20457;-74
2024/03/30 07:23:43;;;;;;;6.63;5.23;;;13.10;1.00;;;;;;5075094;27;20535;-74
2024/03/30 07:26:09;;;;;;;5.37;4.87;;;13.10;1.00;;;;;;5079647;27;20461;-74
2024/03/30 07:28:37;;;;;;;11.50;5.40;;;13.20;1.00;;;;;;5096330;27;20491;-72
2024/03/30 07:31:06;;;;;;;7.47;5.87;;;13.20;1.00;;;;;;5107131;27;20460;-72
2024/03/30 07:33:33;;;;;;;10.70;6.07;;;13.40;1.00;;;;;;5108221;27;20485;-72
2024/03/30 07:36:00;;;;;;;7.77;4.90;;;13.60;1.00;;;;;;5106588;27;20459;-73
2024/03/30 07:38:29;;;;;;;8.67;5.47;;;13.80;1.00;;;;;;5106422;27;20460;-73
2024/03/30 07:40:56;;;;;;;6.83;5.67;;;14.00;1.00;;;;;;5105081;27;20472;-72
2024/03/30 07:43:22;;;;;;;5.53;5.03;;;14.00;1.00;;;;;;5108447;27;20483;-71
2024/03/30 07:45:49;;;;;;;8.10;5.70;;;14.20;1.00;;;;;;5108259;27;20468;-72
2024/03/30 07:48:16;;;;;;;6.27;5.67;;;14.40;1.00;;;;;;5109046;27;20503;-72
2024/03/30 07:50:43;;;;;;;5.67;5.10;;;14.50;1.00;;;;;;5108271;27;20453;-71
2024/03/30 07:53:09;;;;;;;6.80;5.90;;;14.50;1.00;;;;;;5087132;27;20523;-72
2024/03/30 07:55:35;;;;;;;9.03;5.90;;;14.50;1.00;;;;;;5086479;27;20514;-73
2024/03/30 07:58:02;;;;;;;7.90;5.97;;;14.70;1.00;;;;;;5091467;27;20326;-73
2024/03/30 08:00:29;;;;;;;7.07;5.40;;;14.90;1.00;;;;;;5092232;27;20883;-74
2024/03/30 08:03:00;;;;;;;8.30;6.10;;;15.10;1.00;;;;;;5086843;27;20516;-74
2024/03/30 08:05:29;;;;;;;5.60;5.00;;;15.20;1.00;;;;;;5080320;28;21122;-74
2024/03/30 08:07:55;;;;;;;9.50;5.40;;;14.90;1.00;;;;;;5080321;28;20571;-74
2024/03/30 08:10:22;;;;;;;7.33;5.80;;;15.10;1.00;;;;;;5080825;27;20477;-74
2024/03/30 08:12:48;;;;;;;8.47;5.60;;;15.40;1.00;;;;;;5086407;28;20482;-74
2024/03/30 08:15:15;;;;;;;10.30;5.53;;;15.60;1.00;;;;;;5081421;28;20456;-74
2024/03/30 08:17:41;;;;;;;7.13;5.40;;;15.40;1.00;;;;;;5082073;27;20555;-74
2024/03/30 08:20:09;;;;;;;6.30;5.03;;;15.60;1.00;;;;;;5099299;27;20461;-76
2024/03/30 08:22:37;;;;;;;10.83;6.20;;;15.80;1.00;;;;;;5084962;27;20554;-77
2024/03/30 08:25:05;;;;;;;7.00;5.40;;;16.00;1.00;;;;;;5079674;27;20508;-75
2024/03/30 08:27:32;;;;;;;8.90;5.93;;;15.90;1.00;;;;;;5086794;27;20838;-75
2024/03/30 08:30:00;;;;;;;4.90;4.50;;;16.00;1.00;;;;;;5076432;27;20557;-74
2024/03/30 08:32:25;;;;;;;5.77;4.90;;;16.20;1.00;;;;;;5081991;28;20563;-75
2024/03/30 08:34:52;;;;;;;10.20;5.50;;;16.40;1.00;;;;;;5083656;28;20539;-73
2024/03/30 08:37:18;;;;;;;7.20;5.50;;;16.40;1.00;;;;;;5080034;28;20485;-74
2024/03/30 08:39:46;;;;;;;5.10;4.60;;;16.50;1.00;;;;;;5097061;27;21230;-75
2024/03/30 08:42:12;;;;;;;7.20;5.37;;;16.60;1.00;;;;;;5085255;28;20610;-74
2024/03/30 08:44:39;;;;;;;8.77;5.20;;;16.80;1.00;;;;;;5080621;28;20452;-73
2024/03/30 08:47:05;;;;;;;10.13;5.40;;;16.90;1.00;;;;;;5080793;27;20460;-74
2024/03/30 08:49:32;;;;;;;5.97;4.70;;;17.20;1.00;;;;;;5080577;28;20466;-76
2024/03/30 08:51:58;;;;;;;10.30;5.07;;;17.30;1.00;;;;;;5083112;28;20499;-74
2024/03/30 08:54:25;;;;;;;8.70;5.93;;;17.40;1.00;;;;;;5085478;27;20577;-75
2024/03/30 08:56:52;;;;;;;7.10;4.90;;;17.50;1.00;;;;;;5086943;27;20597;-74
2024/03/30 08:59:19;;;;;;;6.80;4.97;;;17.70;1.00;;;;;;5102266;27;20558;-75
2024/03/30 09:01:45;;;;;;;8.77;5.40;;;18.10;1.00;;;;;;5097759;27;20555;-75
2024/03/30 09:04:12;;;;;;;11.93;6.60;;;18.30;1.00;;;;;;5107102;27;20450;-74
2024/03/30 09:06:38;;;;;;;11.73;6.17;;;18.40;1.00;;;;;;5101648;27;20541;-75
2024/03/30 09:09:05;;;;;;;11.30;5.50;;;18.70;1.00;;;;;;5103442;27;20464;-75
2024/03/30 09:11:31;;;;;;;15.67;6.23;;;18.90;1.00;;;;;;5102880;27;20536;-75
2024/03/30 09:13:59;;;;;;;11.87;6.30;;;19.00;1.00;;;;;;5103792;27;20867;-75
2024/03/30 09:16:25;;;;;;;14.60;5.00;;;19.30;1.00;;;;;;5101721;27;20274;-75
2024/03/30 09:18:52;;;;;;;12.30;5.60;;;19.60;1.00;;;;;;5103752;27;20641;-75
2024/03/30 09:21:18;;;;;;;15.07;6.10;;;19.80;1.00;;;;;;5098853;27;20484;-74
2024/03/30 09:23:45;;;;;;;14.97;5.67;;;20.10;1.00;;;;;;5110696;27;20555;-73
2024/03/30 09:26:11;;;;;;;18.83;6.30;;;20.50;1.00;;;;;;5102208;27;20558;-75
2024/03/30 09:28:38;;;;;;;16.90;6.80;;;20.50;1.00;;;;;;5103505;27;20488;-75
2024/03/30 09:31:05;;;;;;;14.90;6.43;;;21.00;1.00;;;;;;5104779;27;20336;-75
2024/03/30 09:33:32;;;;;;;16.53;6.40;;;21.20;1.00;;;;;;5104786;27;20450;-75
2024/03/30 09:35:59;;;;;;;19.67;7.43;;;21.40;1.00;;;;;;5104544;27;20467;-75
2024/03/30 09:38:26;;;;;;;18.20;6.93;;;21.70;1.00;;;;;;5104957;27;20476;-75
2024/03/30 09:40:58;;;;;;;18.03;7.00;;;21.50;1.00;;;;;;5099033;27;20500;-74
2024/03/30 09:43:26;;;;;;;15.83;7.10;;;21.00;1.00;;;;;;5098925;27;20471;-73
2024/03/30 09:45:55;;;;;;;16.87;7.67;;;21.40;1.00;;;;;;5101731;27;20477;-74
2024/03/30 09:48:25;;;;;;;13.57;7.10;;;21.80;1.00;;;;;;5098827;27;20464;-73
2024/03/30 09:50:53;;;;;;;15.03;6.70;;;22.20;1.00;;;;;;5102054;27;20511;-73
2024/03/30 09:53:20;;;;;;;16.03;7.27;;;22.40;1.00;;;;;;5101004;27;20466;-72
2024/03/30 09:55:46;;;;;;;21.10;7.50;;;22.60;1.00;;;;;;5102041;27;20547;-72
2024/03/30 09:58:17;;;;;;;17.73;7.80;;;22.80;1.00;;;;;;5100310;27;20466;-74
2024/03/30 10:00:45;;;;;;;20.57;7.50;;;23.60;1.00;;;;;;5100305;27;20560;-73
2024/03/30 10:03:12;;;;;;;16.87;7.10;;;24.50;1.00;;;;;;5100620;27;20838;-73
2024/03/30 10:05:44;;;;;;;17.07;8.30;;;25.10;1.00;;;;;;5101711;27;20429;-73
2024/03/30 10:08:17;;;;;;;22.57;7.87;;;25.40;1.00;;;;;;5108903;27;20584;-73
2024/03/30 10:10:46;;;;;;;16.53;7.60;;;25.70;1.00;;;;;;5102471;27;20572;-75
2024/03/30 10:13:21;;;;;;;23.70;9.40;;;25.60;1.00;;;;;;5104659;27;20452;-73
2024/03/30 10:15:52;;;;;;;19.47;7.47;;;25.80;1.00;;;;;;5101964;27;20476;-75
2024/03/30 10:18:19;;;;;;;32.37;9.40;;;26.30;1.00;;;;;;5104739;27;20472;-73
2024/03/30 10:20:47;;;;;;;21.90;8.97;;;26.40;1.00;;;;;;5105267;27;20495;-73
2024/03/30 10:23:15;;;;;;;24.93;9.90;;;26.70;1.00;;;;;;5107198;27;20462;-74
2024/03/30 10:25:51;;;;;;;28.03;8.33;;;27.00;1.00;;;;;;5102142;27;20570;-72
2024/03/30 10:28:18;;;;;;;31.17;9.60;;;27.00;1.00;;;;;;5106144;27;20458;-75
2024/03/30 10:30:45;;;;;;;33.93;9.80;;;27.10;1.00;;;;;;5106238;27;20532;-73
2024/03/30 10:33:14;;;;;;;26.93;9.07;;;27.30;1.00;;;;;;5103128;27;20488;-77
2024/03/30 10:35:41;;;;;;;23.80;8.57;;;27.40;1.00;;;;;;5105343;27;20466;-75
2024/03/30 10:38:11;;;;;;;33.67;9.57;;;27.30;1.00;;;;;;5105619;27;20496;-74
2024/03/30 10:40:38;;;;;;;35.93;10.53;;;27.80;1.00;;;;;;5104057;27;20654;-75
2024/03/30 10:43:05;;;;;;;33.43;10.67;;;28.30;1.00;;;;;;5106392;27;20466;-73
2024/03/30 10:45:31;;;;;;;33.33;10.90;;;28.50;1.00;;;;;;5087152;27;20461;-73
2024/03/30 10:47:58;;;;;;;36.63;12.10;;;29.00;1.00;;;;;;5083432;28;20444;-74
2024/03/30 10:50:25;;;;;;;30.20;11.40;;;28.90;1.00;;;;;;5091405;27;20470;-74
2024/03/30 10:52:52;;;;;;;38.47;11.90;;;29.00;1.00;;;;;;5084078;27;20912;-73
2024/03/30 10:55:22;;;;;;;29.83;11.17;;;29.40;1.00;;;;;;5083016;28;20549;-74
2024/03/30 10:57:48;;;;;;;35.10;11.03;;;29.60;1.00;;;;;;5079695;28;20473;-73
2024/03/30 11:00:15;;;;;;;48.37;12.63;;;29.60;1.00;;;;;;5087740;27;20478;-74
2024/03/30 11:02:44;;;;;;;48.43;14.10;;;29.40;1.00;;;;;;5091531;27;20483;-74
2024/03/30 11:05:10;;;;;;;45.30;12.83;;;29.60;1.00;;;;;;5086708;27;20468;-74
2024/03/30 11:07:39;;;;;;;48.10;14.20;;;30.20;1.00;;;;;;5080846;27;20592;-75
2024/03/30 11:10:05;;;;;;;40.00;13.13;;;30.10;1.00;;;;;;5084485;27;20453;-74
2024/03/30 11:12:34;;;;;;;35.03;12.63;;;29.60;1.00;;;;;;5087510;27;21798;-73
2024/03/30 11:15:00;;;;;;;38.10;14.33;;;29.60;1.00;;;;;;5103308;27;20903;-73
2024/03/30 11:17:33;;;;;;;40.20;12.67;;;30.20;1.00;;;;;;5104451;27;20461;-74
2024/03/30 11:20:06;;;;;;;38.93;14.40;;;29.80;1.00;;;;;;5102868;27;21756;-74
2024/03/30 11:22:48;;;;;;;40.63;11.30;;;30.20;1.00;;;;;;5104989;27;20454;-74
2024/03/30 11:25:15;;;;;;;40.73;13.83;;;30.70;1.00;;;;;;5105642;27;20631;-73
2024/03/30 11:27:49;;;;;;;37.97;13.27;;;30.40;1.00;;;;;;5103108;27;20461;-74
2024/03/30 11:30:28;;;;;;;33.33;13.70;;;30.60;1.00;;;;;;5102154;27;20990;-75
2024/03/30 11:33:09;;;;;;;44.67;14.23;;;30.00;1.00;;;;;;5103496;27;20450;-73
2024/03/30 11:35:42;;;;;;;37.63;13.90;;;31.10;1.00;;;;;;5104495;27;20893;-74
2024/03/30 11:38:11;;;;;;;46.27;15.73;;;31.90;1.00;;;;;;5104446;27;20453;-74
2024/03/30 11:40:42;;;;;;;45.77;13.10;;;32.10;1.00;;;;;;5106910;27;21108;-75
2024/03/30 11:43:27;;;;;;;47.10;15.40;;;32.00;1.00;;;;;;5088402;27;20458;-74
2024/03/30 11:45:54;;;;;;;47.60;13.97;;;32.50;1.00;;;;;;5082763;27;20465;-74
2024/03/30 11:48:22;;;;;;;55.20;15.20;;;32.40;1.00;;;;;;5085726;27;20817;-74
2024/03/30 11:50:49;;;;;;;47.03;14.43;;;31.90;1.00;;;;;;5104139;27;20482;-74
2024/03/30 11:53:16;;;;;;;47.07;13.90;;;32.00;1.00;;;;;;5105606;27;20852;-74
2024/03/30 11:55:43;;;;;;;46.43;14.27;;;31.90;1.00;;;;;;5104071;27;20520;-74
2024/03/30 11:58:18;;;;;;;43.13;15.10;;;32.20;1.00;;;;;;5104500;27;20466;-74
2024/03/30 12:00:48;;;;;;;54.60;15.77;;;33.00;1.00;;;;;;5104279;27;20474;-75
2024/03/30 12:03:16;;;;;;;49.33;15.03;;;33.60;1.00;;;;;;5104858;27;20460;-75
2024/03/30 12:05:45;;;;;;;43.90;15.60;;;33.60;1.00;;;;;;5103080;27;20476;-73
2024/03/30 12:08:12;;;;;;;42.53;14.60;;;34.20;1.00;;;;;;5104129;27;20465;-74
2024/03/30 12:10:52;;;;;;;53.87;15.87;;;34.10;1.00;;;;;;5105066;27;20634;-76
2024/03/30 12:13:25;;;;;;;47.27;15.93;;;33.40;1.00;;;;;;5089632;27;20455;-75
2024/03/30 12:15:52;;;;;;;36.33;13.67;;;33.30;1.00;;;;;;5095968;27;20841;-75
2024/03/30 12:18:19;;;;;;;41.93;13.67;;;33.90;1.00;;;;;;5091973;27;20542;-75
2024/03/30 12:20:47;;;;;;;49.37;14.70;;;34.20;1.00;;;;;;5082052;27;20482;-75
2024/03/30 12:23:17;;;;;;;51.83;15.10;;;33.90;1.00;;;;;;5082171;27;20442;-75
2024/03/30 12:25:44;;;;;;;40.47;14.17;;;33.60;1.00;;;;;;5082543;28;20591;-75
2024/03/30 12:28:11;;;;;;;51.63;15.53;;;33.40;1.00;;;;;;5084254;28;20466;-75
2024/03/30 12:30:43;;;;;;;42.93;14.13;;;33.40;1.00;;;;;;5081551;27;20470;-75
2024/03/30 12:33:11;;;;;;;43.13;13.80;;;33.60;1.00;;;;;;5090521;27;20477;-74
2024/03/30 12:35:37;;;;;;;43.80;14.40;;;33.80;1.00;;;;;;5083529;28;20471;-74
2024/03/30 12:38:05;;;;;;;40.77;15.03;;;34.20;1.00;;;;;;5083077;28;20450;-74
2024/03/30 12:40:32;;;;;;;44.03;13.90;;;34.20;1.00;;;;;;5080843;28;21017;-75
2024/03/30 12:42:59;;;;;;;41.90;16.20;;;34.50;1.00;;;;;;5084627;27;20448;-75
2024/03/30 12:45:26;;;;;;;48.57;14.57;;;34.60;1.00;;;;;;5083371;27;20458;-75
2024/03/30 12:47:54;;;;;;;42.20;14.80;;;34.30;1.00;;;;;;5079927;28;20967;-75
2024/03/30 12:50:22;;;;;;;49.87;14.90;;;34.60;1.00;;;;;;5082493;28;20463;-75
2024/03/30 12:52:51;;;;;;;46.30;13.47;;;34.50;1.00;;;;;;5090686;27;20596;-75
2024/03/30 12:55:17;;;;;;;39.87;14.23;;;34.30;1.00;;;;;;5083205;28;20554;-74